Time;durP1;ratioP1;P1;durP2;ratioP2;P2;SDS_P1;SDS_P2;PMS_P1;PMS_P2;Temp;Humidity;BMP_temperature;BMP_pressure;BME280_temperature;BME280_humidity;BME280_pressure;Samples;Min_cycle;Max_cycle;Signal;HPM_P1;HPM_P2
2021/06/04 00:00:30;;;;;;;;;;;;;;;11.36;79.24;96478.72;1679950;85;20167;-59
2021/06/04 00:03:02;;;;;;;;;;;;;;;11.30;79.21;96483.61;1679672;85;20156;-59
2021/06/04 00:05:32;;;;;;;;;;;;;;;11.27;79.59;96479.68;1679074;85;20116;-59
2021/06/04 00:07:58;;;;;;;;;;;;;;;11.20;79.35;96478.83;1679443;85;20136;-59
2021/06/04 00:10:28;;;;;;;;;;;;;;;11.11;79.62;96480.66;1679906;85;20135;-60
2021/06/04 00:12:57;;;;;;;;;;;;;;;11.01;79.84;96493.03;1680011;85;20124;-58
2021/06/04 00:15:26;;;;;;;;;;;;;;;10.96;79.57;96486.48;1678355;86;20119;-58
2021/06/04 00:17:53;;;;;;;;;;;;;;;10.88;79.23;96482.98;1679871;85;20132;-58
2021/06/04 00:20:23;;;;;;;;;;;;;;;10.86;79.23;96486.52;1679606;85;20152;-58
2021/06/04 00:22:50;;;;;;;;;;;;;;;10.79;79.64;96479.09;1679827;85;20174;-58
2021/06/04 00:25:17;;;;;;;;;;;;;;;10.69;80.17;96476.94;1679897;85;20172;-59
2021/06/04 00:27:43;;;;;;;;;;;;;;;10.60;81.34;96481.80;1679529;85;20183;-59
2021/06/04 00:30:10;;;;;;;;;;;;;;;10.59;81.26;96483.15;1679972;85;20123;-59
2021/06/04 00:32:37;;;;;;;;;;;;;;;10.58;80.85;96477.42;1679802;86;20144;-59
2021/06/04 00:35:06;;;;;;;;;;;;;;;10.55;80.98;96478.76;1679590;85;20437;-59
2021/06/04 00:37:32;;;;;;;;;;;;;;;10.50;81.86;96486.69;1679792;85;20481;-59
2021/06/04 00:39:59;;;;;;;;;;;;;;;10.49;81.91;96489.35;1679932;85;20127;-59
2021/06/04 00:42:28;;;;;;;;;;;;;;;10.43;82.06;96488.03;1679989;85;20135;-58
2021/06/04 00:44:57;;;;;;;;;;;;;;;10.37;82.10;96487.63;1679921;85;20115;-59
2021/06/04 00:47:26;;;;;;;;;;;;;;;10.33;82.71;96485.87;1680161;85;20152;-59
2021/06/04 00:49:55;;;;;;;;;;;;;;;10.31;82.85;96488.98;1692647;84;20113;-59
2021/06/04 00:52:28;;;;;;;;;;;;;;;10.27;83.28;96480.14;1700213;84;20102;-58
2021/06/04 00:54:57;;;;;;;;;;;;;;;10.31;82.96;96480.62;1700690;84;20420;-58
2021/06/04 00:57:24;;;;;;;;;;;;;;;10.30;81.96;96476.20;1672417;86;20104;-58
2021/06/04 01:00:00;;;;;;;;;;;;;;;10.35;81.68;96475.75;1672257;86;20153;-58
2021/06/04 01:02:24;;;;;;;;;;;;;;;10.32;81.53;96482.36;1671764;86;20309;-58
2021/06/04 01:04:52;;;;;;;;;;;;;;;10.33;81.39;96477.95;1672172;86;20105;-58
2021/06/04 01:07:31;;;;;;;;;;;;;;;10.30;82.53;96481.93;1672663;86;20410;-58
2021/06/04 01:10:22;;;;;;;;;;;;;;;10.29;82.80;96481.51;1672598;86;20113;-58
2021/06/04 01:13:09;;;;;;;;;;;;;;;10.33;82.02;96481.91;1672468;86;20105;-59
2021/06/04 01:15:49;;;;;;;;;;;;;;;10.32;82.34;96474.89;1672693;86;20092;-60
2021/06/04 01:18:36;;;;;;;;;;;;;;;10.34;82.62;96477.09;1672287;86;20404;-59
2021/06/04 01:21:13;;;;;;;;;;;;;;;10.46;82.62;96477.47;1672177;86;20497;-59
2021/06/04 01:23:47;;;;;;;;;;;;;;;10.60;81.98;96473.02;1668879;86;20116;-58
2021/06/04 01:26:36;;;;;;;;;;;;;;;10.66;81.42;96472.10;1672432;86;20409;-59
2021/06/04 01:29:07;;;;;;;;;;;;;;;10.57;81.17;96473.91;1672511;86;20108;-59
2021/06/04 01:31:40;;;;;;;;;;;;;;;10.54;80.73;96467.78;1672581;86;20413;-58
2021/06/04 01:34:13;;;;;;;;;;;;;;;10.50;80.58;96471.30;1672569;86;20116;-58
2021/06/04 01:36:46;;;;;;;;;;;;;;;10.48;80.89;96477.93;1672032;86;20140;-59
2021/06/04 01:39:20;;;;;;;;;;;;;;;10.47;80.85;96472.20;1672272;86;20104;-59
2021/06/04 01:41:49;;;;;;;;;;;;;;;10.46;80.66;96480.10;1671826;86;20113;-59
2021/06/04 01:44:28;;;;;;;;;;;;;;;10.46;80.63;96478.78;1654864;86;20152;-59
2021/06/04 01:47:00;;;;;;;;;;;;;;;10.42;80.26;96475.30;1672394;86;20113;-59
2021/06/04 01:49:31;;;;;;;;;;;;;;;10.29;79.88;96478.87;1672473;85;20137;-59
2021/06/04 01:52:07;;;;;;;;;;;;;;;10.17;79.80;96479.73;1672503;86;20104;-59
2021/06/04 01:54:38;;;;;;;;;;;;;;;10.07;80.05;96481.97;1672350;86;20136;-58
2021/06/04 01:57:11;;;;;;;;;;;;;;;9.93;79.96;96484.65;1672246;85;20127;-58
2021/06/04 01:59:41;;;;;;;;;;;;;;;9.82;79.99;96479.81;1686981;85;20123;-58
2021/06/04 02:02:25;;;;;;;;;;;;;;;9.74;79.97;96485.09;1683598;85;20162;-58
2021/06/04 02:04:54;;;;;;;;;;;;;;;9.73;80.41;96490.81;1687093;85;20436;-59
2021/06/04 02:07:26;;;;;;;;;;;;;;;9.71;80.93;96485.11;1687064;85;20127;-59
2021/06/04 02:09:53;;;;;;;;;;;;;;;9.60;81.55;96491.72;1686948;85;20159;-58
2021/06/04 02:12:22;;;;;;;;;;;;;;;9.54;81.96;96490.38;1686787;85;20130;-59
2021/06/04 02:14:53;;;;;;;;;;;;;;;9.52;82.11;96496.08;1686901;85;20175;-59
2021/06/04 02:17:43;;;;;;;;;;;;;;;9.43;82.37;96495.66;1686714;85;20159;-58
2021/06/04 02:20:40;;;;;;;;;;;;;;;9.35;83.10;96494.78;1686547;85;20123;-59
2021/06/04 02:23:32;;;;;;;;;;;;;;;9.27;82.76;96496.51;1622842;88;20168;-61
2021/06/04 02:26:06;;;;;;;;;;;;;;;9.22;82.69;96495.63;1632355;88;20132;-62
2021/06/04 02:28:39;;;;;;;;;;;;;;;9.21;82.14;96496.06;1664041;85;20147;-61
2021/06/04 02:31:46;;;;;;;;;;;;;;;9.24;81.54;96499.14;1687180;85;20171;-58
2021/06/04 02:34:21;;;;;;;;;;;;;;;9.25;81.26;96500.47;1687000;85;20163;-61
2021/06/04 02:37:02;;;;;;;;;;;;;;;9.18;82.38;96498.70;1686809;85;20135;-61
2021/06/04 02:39:35;;;;;;;;;;;;;;;9.19;81.87;96500.45;1687050;85;20139;-58
2021/06/04 02:42:13;;;;;;;;;;;;;;;9.17;81.50;96498.69;1686896;85;20131;-58
2021/06/04 02:44:44;;;;;;;;;;;;;;;9.17;81.34;96502.23;1686470;85;20139;-58
2021/06/04 02:47:16;;;;;;;;;;;;;;;9.18;81.12;96494.75;1687146;85;20230;-58
2021/06/04 02:49:43;;;;;;;;;;;;;;;9.20;82.03;96497.41;1683288;85;20154;-58
2021/06/04 02:52:29;;;;;;;;;;;;;;;9.22;82.80;96495.63;1653310;86;20429;-58
2021/06/04 02:54:59;;;;;;;;;;;;;;;9.25;83.69;96502.23;1678076;85;20127;-63
2021/06/04 02:57:29;;;;;;;;;;;;;;;9.36;83.41;96500.47;1679835;85;20115;-61
2021/06/04 02:59:55;;;;;;;;;;;;;;;9.41;83.26;96494.77;1680033;85;20128;-61
2021/06/04 03:02:27;;;;;;;;;;;;;;;9.51;83.07;96503.11;1679824;85;20156;-61
2021/06/04 03:04:57;;;;;;;;;;;;;;;9.57;82.98;96500.03;1679087;85;20215;-61
2021/06/04 03:07:27;;;;;;;;;;;;;;;9.71;82.65;96500.92;1654979;85;20132;-60
2021/06/04 03:09:56;;;;;;;;;;;;;;;9.72;82.47;96507.48;1679707;85;20132;-60
2021/06/04 03:12:29;;;;;;;;;;;;;;;9.69;82.57;96501.35;1679960;85;20163;-60
2021/06/04 03:14:58;;;;;;;;;;;;;;;9.70;83.09;96504.00;1680122;85;20457;-60
2021/06/04 03:17:29;;;;;;;;;;;;;;;9.75;82.90;96504.88;1654772;85;20156;-60
2021/06/04 03:19:56;;;;;;;;;;;;;;;9.80;82.66;96499.57;1679853;85;20186;-61
2021/06/04 03:22:29;;;;;;;;;;;;;;;9.87;83.01;96502.64;1679892;85;20175;-61
2021/06/04 03:25:03;;;;;;;;;;;;;;;9.87;83.67;96505.28;1679723;85;20116;-62
2021/06/04 03:27:31;;;;;;;;;;;;;;;9.98;83.61;96506.61;1654287;85;20128;-61
2021/06/04 03:29:59;;;;;;;;;;;;;;;10.15;83.36;96501.28;1679611;85;20457;-59
2021/06/04 03:32:27;;;;;;;;;;;;;;;10.24;82.74;96498.62;1679943;85;20133;-59
2021/06/04 03:34:54;;;;;;;;;;;;;;;10.35;82.12;96503.89;1679849;85;20152;-59
2021/06/04 03:37:21;;;;;;;;;;;;;;;10.52;81.86;96499.44;1679882;85;20119;-59
2021/06/04 03:39:48;;;;;;;;;;;;;;;10.73;81.33;96506.83;1679821;85;20418;-59
2021/06/04 03:42:21;;;;;;;;;;;;;;;10.84;80.85;96501.07;1679575;85;20128;-59
2021/06/04 03:44:49;;;;;;;;;;;;;;;11.01;80.55;96502.28;1654640;85;20124;-58
2021/06/04 03:47:18;;;;;;;;;;;;;;;11.17;79.34;96502.64;1679811;85;20135;-59
2021/06/04 03:49:45;;;;;;;;;;;;;;;11.30;79.03;96499.91;1685124;84;20109;-59
2021/06/04 03:52:15;;;;;;;;;;;;;;;11.39;78.97;96503.37;1706006;84;20114;-58
2021/06/04 03:54:44;;;;;;;;;;;;;;;11.45;78.30;96496.70;1705894;84;20126;-58
2021/06/04 03:57:14;;;;;;;;;;;;;;;11.50;78.36;96494.03;1697198;84;20159;-59
2021/06/04 03:59:43;;;;;;;;;;;;;;;11.60;78.92;96498.81;1696479;85;20150;-59
2021/06/04 04:02:12;;;;;;;;;;;;;;;11.58;78.88;96501.45;1692724;85;20104;-60
2021/06/04 04:04:38;;;;;;;;;;;;;;;11.63;79.04;96496.13;1692649;84;20111;-60
2021/06/04 04:07:06;;;;;;;;;;;;;;;11.70;78.17;96495.20;1692445;84;20384;-60
2021/06/04 04:09:32;;;;;;;;;;;;;;;11.74;77.77;96494.71;1692457;85;20103;-60
2021/06/04 04:11:59;;;;;;;;;;;;;;;11.89;77.70;96499.47;1692227;84;20116;-60
2021/06/04 04:14:26;;;;;;;;;;;;;;;12.03;76.24;96504.62;1692665;84;20111;-60
2021/06/04 04:16:52;;;;;;;;;;;;;;;12.16;75.53;96506.69;1692623;84;20445;-59
2021/06/04 04:19:20;;;;;;;;;;;;;;;12.20;74.59;96504.45;1692636;85;20100;-59
2021/06/04 04:21:53;;;;;;;;;;;;;;;12.29;74.38;96501.69;1692634;85;20417;-59
2021/06/04 04:24:25;;;;;;;;;;;;;;;12.29;71.28;96502.14;1692545;84;20119;-59
2021/06/04 04:26:52;;;;;;;;;;;;;;;12.39;72.87;96497.63;1692346;85;20120;-59
2021/06/04 04:29:19;;;;;;;;;;;;;;;12.48;73.46;96503.70;1692681;84;20103;-59
2021/06/04 04:31:49;;;;;;;;;;;;;;;12.59;73.96;96506.22;1692322;85;20135;-59
2021/06/04 04:34:16;;;;;;;;;;;;;;;12.66;74.09;96507.03;1692154;84;20171;-58
2021/06/04 04:36:46;;;;;;;;;;;;;;;12.68;73.62;96502.14;1692526;84;20143;-59
2021/06/04 04:39:16;;;;;;;;;;;;;;;12.71;73.36;96494.61;1692617;84;20135;-59
2021/06/04 04:41:43;;;;;;;;;;;;;;;12.77;73.23;96498.49;1692784;85;20134;-59
2021/06/04 04:44:10;;;;;;;;;;;;;;;12.80;73.90;96502.87;1692646;85;20405;-59
2021/06/04 04:46:37;;;;;;;;;;;;;;;12.93;74.12;96495.22;1692423;84;20393;-59
2021/06/04 04:49:04;;;;;;;;;;;;;;;13.02;73.50;96503.02;1692712;84;20135;-60
2021/06/04 04:51:32;;;;;;;;;;;;;;;13.13;72.88;96495.81;1688091;85;20157;-60
2021/06/04 04:53:59;;;;;;;;;;;;;;;13.25;73.34;96500.50;1702877;84;20114;-59
2021/06/04 04:56:26;;;;;;;;;;;;;;;13.35;72.25;96498.17;1694933;84;20175;-60
2021/06/04 04:58:53;;;;;;;;;;;;;;;13.42;71.51;96503.81;1690810;84;20116;-60
2021/06/04 05:01:20;;;;;;;;;;;;;;;13.51;72.06;96502.35;1685149;85;20103;-61
2021/06/04 05:03:47;;;;;;;;;;;;;;;13.69;72.21;96498.98;1686772;85;20382;-59
2021/06/04 05:06:13;;;;;;;;;;;;;;;13.78;68.52;96504.12;1684768;85;20160;-63
2021/06/04 05:08:40;;;;;;;;;;;;;;;13.85;69.36;96497.36;1686922;85;20405;-61
2021/06/04 05:11:07;;;;;;;;;;;;;;;13.95;69.47;96499.86;1685842;85;20414;-60
2021/06/04 05:13:35;;;;;;;;;;;;;;;14.00;68.52;96505.97;1687174;85;20139;-59
2021/06/04 05:16:04;;;;;;;;;;;;;;;14.10;68.60;96509.34;1686043;85;20373;-61
2021/06/04 05:18:33;;;;;;;;;;;;;;;14.22;68.19;96506.47;1687139;85;20103;-62
2021/06/04 05:21:00;;;;;;;;;;;;;;;14.29;65.73;96507.65;1685662;85;20140;-60
2021/06/04 05:23:27;;;;;;;;;;;;;;;14.45;65.73;96505.57;1687105;85;20116;-60
2021/06/04 05:25:54;;;;;;;;;;;;;;;14.70;65.65;96500.69;1685252;85;20144;-61
2021/06/04 05:28:24;;;;;;;;;;;;;;;14.92;64.03;96506.90;1687065;85;20123;-61
2021/06/04 05:30:53;;;;;;;;;;;;;;;15.14;63.81;96505.95;1685869;85;20104;-59
2021/06/04 05:33:23;;;;;;;;;;;;;;;15.32;62.96;96502.02;1687101;85;20124;-60
2021/06/04 05:35:50;;;;;;;;;;;;;;;15.46;61.42;96510.56;1685861;85;20115;-60
2021/06/04 05:38:17;;;;;;;;;;;;;;;15.68;63.23;96502.09;1686821;85;20115;-62
2021/06/04 05:40:46;;;;;;;;;;;;;;;15.80;63.37;96512.47;1685365;85;20175;-60
2021/06/04 05:43:15;;;;;;;;;;;;;;;15.97;62.63;96509.37;1687057;85;20112;-64
2021/06/04 05:45:43;;;;;;;;;;;;;;;16.18;61.88;96512.83;1703194;84;20158;-59
2021/06/04 05:48:12;;;;;;;;;;;;;;;16.37;61.05;96513.20;1703263;84;20436;-60
2021/06/04 05:50:41;;;;;;;;;;;;;;;16.53;61.27;96517.67;1710818;83;20137;-60
2021/06/04 05:53:10;;;;;;;;;;;;;;;16.69;62.21;96517.25;1757545;82;20098;-61
2021/06/04 05:55:38;;;;;;;;;;;;;;;16.78;59.63;96514.34;1749424;82;20157;-60
2021/06/04 05:58:06;;;;;;;;;;;;;;;16.87;60.64;96517.63;1728105;83;20113;-62
2021/06/04 06:00:35;;;;;;;;;;;;;;;16.92;58.81;96516.63;1709035;84;20126;-61
2021/06/04 06:03:04;;;;;;;;;;;;;;;17.05;60.54;96520.67;1709378;84;20420;-61
2021/06/04 06:05:31;;;;;;;;;;;;;;;17.17;57.78;96520.78;1709840;83;20122;-62
2021/06/04 06:07:57;;;;;;;;;;;;;;;17.23;58.86;96509.92;1757526;82;20107;-61
2021/06/04 06:10:24;;;;;;;;;;;;;;;17.36;60.13;96507.75;1757622;81;20126;-60
2021/06/04 06:12:51;;;;;;;;;;;;;;;17.40;55.97;96514.75;1757870;82;20143;-60
2021/06/04 06:15:19;;;;;;;;;;;;;;;17.55;58.02;96518.27;1757571;81;20112;-60
2021/06/04 06:17:45;;;;;;;;;;;;;;;17.59;56.71;96517.70;1757636;81;20147;-60
2021/06/04 06:20:14;;;;;;;;;;;;;;;17.40;54.23;96516.09;1757776;81;20139;-59
2021/06/04 06:22:42;;;;;;;;;;;;;;;17.33;55.17;96514.05;1757663;81;20099;-60
2021/06/04 06:25:14;;;;;;;;;;;;;;;17.28;54.00;96522.19;1757673;81;20091;-59
2021/06/04 06:27:40;;;;;;;;;;;;;;;17.27;55.49;96524.45;1714330;81;20129;-59
2021/06/04 06:30:11;;;;;;;;;;;;;;;17.35;56.68;96523.36;1682614;85;20435;-59
2021/06/04 06:32:37;;;;;;;;;;;;;;;17.38;55.82;96520.59;1684905;84;20155;-59
2021/06/04 06:35:05;;;;;;;;;;;;;;;17.35;55.97;96522.02;1710916;84;20452;-60
2021/06/04 06:37:31;;;;;;;;;;;;;;;17.34;54.92;96518.92;1710798;84;20133;-60
2021/06/04 06:39:57;;;;;;;;;;;;;;;17.44;53.92;96515.08;1710871;84;20105;-61
2021/06/04 06:42:25;;;;;;;;;;;;;;;17.44;54.38;96517.28;1710528;84;20126;-58
2021/06/04 06:44:52;;;;;;;;;;;;;;;17.44;55.13;96518.62;1710936;84;20154;-59
2021/06/04 06:47:19;;;;;;;;;;;;;;;17.61;55.85;96522.53;1710775;84;20106;-59
2021/06/04 06:49:45;;;;;;;;;;;;;;;17.77;53.48;96514.94;1710650;84;20102;-59
2021/06/04 06:52:11;;;;;;;;;;;;;;;17.82;54.82;96518.36;1707768;84;20133;-61
2021/06/04 06:54:39;;;;;;;;;;;;;;;17.91;51.91;96518.05;1701643;83;20134;-60
2021/06/04 06:57:06;;;;;;;;;;;;;;;18.08;53.51;96518.83;1691393;85;20155;-58
2021/06/04 06:59:32;;;;;;;;;;;;;;;18.19;51.30;96517.13;1693275;84;20202;-58
2021/06/04 07:02:02;;;;;;;;;;;;;;;18.31;47.18;96518.91;1693114;85;20424;-59
2021/06/04 07:04:30;;;;;;;;;;;;;;;18.50;49.64;96516.96;1693226;85;20138;-58
2021/06/04 07:06:57;;;;;;;;;;;;;;;18.67;49.68;96511.89;1692795;84;20135;-58
2021/06/04 07:09:24;;;;;;;;;;;;;;;18.89;48.33;96512.47;1693173;84;20488;-59
2021/06/04 07:11:54;;;;;;;;;;;;;;;19.11;48.57;96511.21;1692844;84;20134;-59
2021/06/04 07:14:27;;;;;;;;;;;;;;;19.33;46.75;96505.92;1693417;85;20135;-59
2021/06/04 07:16:54;;;;;;;;;;;;;;;19.57;43.43;96512.10;1693185;84;20202;-59
2021/06/04 07:19:20;;;;;;;;;;;;;;;19.74;42.46;96505.64;1692478;85;20111;-59
2021/06/04 07:21:47;;;;;;;;;;;;;;;19.93;41.44;96507.56;1692334;85;20156;-59
2021/06/04 07:24:14;;;;;;;;;;;;;;;20.16;39.63;96507.95;1692419;85;20160;-58
2021/06/04 07:26:49;;;;;;;;;;;;;;;20.24;43.32;96513.88;1692355;85;20136;-58
2021/06/04 07:29:18;;;;;;;;;;;;;;;20.26;41.31;96510.64;1692574;84;20408;-59
2021/06/04 07:31:45;;;;;;;;;;;;;;;20.21;35.66;96506.84;1692409;85;20119;-59
2021/06/04 07:34:13;;;;;;;;;;;;;;;20.07;37.91;96508.74;1692401;85;20091;-58
2021/06/04 07:36:43;;;;;;;;;;;;;;;20.10;35.61;96503.72;1692579;85;20115;-59
2021/06/04 07:39:13;;;;;;;;;;;;;;;20.42;39.88;96509.55;1692572;85;20401;-59
2021/06/04 07:41:40;;;;;;;;;;;;;;;20.85;38.91;96505.88;1692510;84;20115;-60
2021/06/04 07:44:07;;;;;;;;;;;;;;;20.96;36.46;96504.04;1692447;84;20111;-59
2021/06/04 07:46:34;;;;;;;;;;;;;;;20.89;34.18;96506.15;1692255;85;20460;-59
2021/06/04 07:49:00;;;;;;;;;;;;;;;21.12;33.16;96501.55;1692492;84;20132;-60
2021/06/04 07:51:30;;;;;;;;;;;;;;;21.35;32.87;96503.16;1693453;84;20156;-60
2021/06/04 07:53:57;;;;;;;;;;;;;;;21.25;31.67;96500.03;1757638;82;20103;-59
2021/06/04 07:56:23;;;;;;;;;;;;;;;21.17;32.94;96503.08;1739547;81;20153;-59
2021/06/04 07:58:50;;;;;;;;;;;;;;;21.18;36.20;96498.57;1672645;85;20151;-58
2021/06/04 08:01:17;;;;;;;;;;;;;;;21.14;33.53;96497.85;1698680;84;20123;-58
2021/06/04 08:03:45;;;;;;;;;;;;;;;21.07;29.70;96501.76;1698025;85;20131;-59
2021/06/04 08:06:13;;;;;;;;;;;;;;;21.23;32.99;96500.57;1698359;85;20111;-58
2021/06/04 08:08:39;;;;;;;;;;;;;;;21.11;29.99;96500.66;1698543;84;20099;-57
2021/06/04 08:11:08;;;;;;;;;;;;;;;21.01;30.85;96506.05;1698423;84;20111;-58
2021/06/04 08:13:35;;;;;;;;;;;;;;;20.86;27.58;96508.94;1698016;85;20110;-58
2021/06/04 08:16:08;;;;;;;;;;;;;;;20.71;31.35;96508.28;1698436;84;20405;-59
2021/06/04 08:18:35;;;;;;;;;;;;;;;20.60;32.79;96513.27;1698375;85;20115;-58
2021/06/04 08:21:05;;;;;;;;;;;;;;;20.58;33.75;96511.98;1697804;84;20122;-59
2021/06/04 08:23:36;;;;;;;;;;;;;;;20.57;33.39;96512.93;1699993;83;20405;-60
2021/06/04 08:26:05;;;;;;;;;;;;;;;20.52;31.29;96513.56;1698063;85;20166;-59
2021/06/04 08:28:32;;;;;;;;;;;;;;;20.36;32.97;96519.16;1699433;84;20422;-59
2021/06/04 08:30:59;;;;;;;;;;;;;;;20.30;32.93;96517.15;1698007;84;20111;-58
2021/06/04 08:33:28;;;;;;;;;;;;;;;20.28;34.95;96523.52;1699162;84;20103;-59
2021/06/04 08:35:57;;;;;;;;;;;;;;;20.16;36.43;96519.56;1698020;85;20190;-62
2021/06/04 08:38:24;;;;;;;;;;;;;;;20.18;36.41;96520.81;1699726;84;20155;-61
2021/06/04 08:40:51;;;;;;;;;;;;;;;20.11;34.61;96517.55;1697793;85;20401;-61
2021/06/04 08:43:47;;;;;;;;;;;;;;;20.21;34.91;96515.33;1699654;84;20409;-60
2021/06/04 08:46:32;;;;;;;;;;;;;;;20.26;37.51;96516.00;1698277;84;20441;-60
2021/06/04 08:49:04;;;;;;;;;;;;;;;20.31;33.94;96518.05;1699738;84;20111;-59
2021/06/04 08:51:53;;;;;;;;;;;;;;;20.32;35.96;96519.30;1698024;85;20148;-60
2021/06/04 08:54:38;;;;;;;;;;;;;;;20.34;35.81;96521.06;1658409;84;20110;-59
2021/06/04 08:57:17;;;;;;;;;;;;;;;20.35;36.63;96520.98;1698488;84;20108;-59
2021/06/04 08:59:44;;;;;;;;;;;;;;;20.32;36.67;96523.32;1693062;85;20194;-58
2021/06/04 09:02:17;;;;;;;;;;;;;;;20.35;37.23;96522.80;1698456;85;20107;-58
2021/06/04 09:04:46;;;;;;;;;;;;;;;20.40;36.92;96521.66;1698756;84;20127;-58
2021/06/04 09:07:17;;;;;;;;;;;;;;;20.38;34.65;96524.86;1698571;85;20147;-58
2021/06/04 09:09:53;;;;;;;;;;;;;;;20.35;35.11;96520.98;1698282;85;20108;-58
2021/06/04 09:12:40;;;;;;;;;;;;;;;20.34;35.91;96520.59;1697205;85;20115;-60
2021/06/04 09:15:09;;;;;;;;;;;;;;;20.32;34.21;96518.44;1710382;84;20155;-58
2021/06/04 09:17:48;;;;;;;;;;;;;;;20.28;35.97;96521.70;1698319;85;20124;-59
2021/06/04 09:20:24;;;;;;;;;;;;;;;20.27;33.80;96523.98;1697290;85;20115;-58
2021/06/04 09:23:02;;;;;;;;;;;;;;;20.32;33.82;96519.78;1698293;85;20405;-59
2021/06/04 09:25:31;;;;;;;;;;;;;;;20.48;35.53;96517.30;1698431;85;20111;-58
2021/06/04 09:28:13;;;;;;;;;;;;;;;20.63;33.41;96513.98;1697757;85;20140;-58
2021/06/04 09:30:43;;;;;;;;;;;;;;;20.72;33.62;96515.41;1698462;85;20135;-59
2021/06/04 09:33:27;;;;;;;;;;;;;;;20.86;34.33;96511.63;1698545;85;20127;-58
2021/06/04 09:35:57;;;;;;;;;;;;;;;21.04;35.02;96511.73;1698680;85;20409;-58
2021/06/04 09:38:30;;;;;;;;;;;;;;;21.24;33.81;96502.78;1698647;85;20150;-58
2021/06/04 09:41:00;;;;;;;;;;;;;;;21.38;32.01;96497.64;1697608;85;20131;-58
2021/06/04 09:43:32;;;;;;;;;;;;;;;21.57;29.21;96501.23;1699376;83;20107;-58
2021/06/04 09:46:01;;;;;;;;;;;;;;;22.10;31.19;96494.64;1698484;85;20103;-58
2021/06/04 09:48:40;;;;;;;;;;;;;;;22.41;28.42;96489.98;1698648;85;20111;-58
2021/06/04 09:51:26;;;;;;;;;;;;;;;22.65;30.34;96491.86;1696814;85;20112;-58
2021/06/04 09:53:54;;;;;;;;;;;;;;;22.77;28.51;96493.05;1680620;85;20149;-58
2021/06/04 09:56:28;;;;;;;;;;;;;;;22.84;29.16;96496.67;1681988;85;20165;-60
2021/06/04 09:58:58;;;;;;;;;;;;;;;23.10;27.72;96489.05;1680408;85;20140;-58
2021/06/04 10:01:30;;;;;;;;;;;;;;;23.62;29.62;96487.53;1681924;85;20116;-58
2021/06/04 10:04:09;;;;;;;;;;;;;;;23.87;27.36;96490.22;1680269;85;20556;-58
2021/06/04 10:06:41;;;;;;;;;;;;;;;23.63;27.35;96484.35;1681239;85;20418;-58
2021/06/04 10:09:26;;;;;;;;;;;;;;;23.69;26.80;96484.02;1680504;85;20394;-58
2021/06/04 10:12:02;;;;;;;;;;;;;;;23.62;24.77;96475.89;1681882;85;20438;-61
2021/06/04 10:14:55;;;;;;;;;;;;;;;23.29;25.68;96478.16;1680466;85;20124;-58
2021/06/04 10:20:21;;;;;;;;;;;;;;;23.10;28.04;96477.80;1680139;85;20116;-58
2021/06/04 10:22:48;;;;;;;;;;;;;;;23.06;28.08;96475.39;1670411;85;20140;-58
2021/06/04 10:25:18;;;;;;;;;;;;;;;22.90;27.53;96478.84;1681776;85;20149;-58
2021/06/04 10:27:48;;;;;;;;;;;;;;;22.76;26.48;96481.42;1697607;85;20127;-58
2021/06/04 10:30:27;;;;;;;;;;;;;;;23.00;28.31;96485.98;1697811;85;20184;-58
2021/06/04 10:33:01;;;;;;;;;;;;;;;23.15;25.26;96477.56;1694978;85;20158;-59
2021/06/04 10:35:33;;;;;;;;;;;;;;;22.98;30.82;96476.25;1697720;85;20178;-58
2021/06/04 10:38:08;;;;;;;;;;;;;;;23.06;27.08;96479.42;1697713;85;20127;-58
2021/06/04 10:40:39;;;;;;;;;;;;;;;23.09;27.49;96476.08;1697487;84;20428;-58
2021/06/04 10:43:14;;;;;;;;;;;;;;;23.05;26.93;96480.36;1697493;85;20171;-58
2021/06/04 10:45:44;;;;;;;;;;;;;;;23.21;28.72;96470.52;1697845;85;20114;-59
2021/06/04 10:48:31;;;;;;;;;;;;;;;23.79;30.70;96473.14;1697292;85;20123;-58
2021/06/04 10:51:26;;;;;;;;;;;;;;;24.15;29.40;96475.52;1697922;85;20420;-58
2021/06/04 10:54:14;;;;;;;;;;;;;;;24.28;28.29;96476.16;1697535;85;20416;-58
2021/06/04 10:56:43;;;;;;;;;;;;;;;24.48;26.48;96473.17;1698458;84;20126;-58
2021/06/04 10:59:37;;;;;;;;;;;;;;;24.32;28.80;96470.49;1699283;85;20161;-58
2021/06/04 11:02:24;;;;;;;;;;;;;;;24.12;28.44;96471.66;1693974;85;20162;-61
2021/06/04 11:05:00;;;;;;;;;;;;;;;24.05;28.34;96467.58;1698959;85;20139;-61
2021/06/04 11:07:40;;;;;;;;;;;;;;;24.30;28.17;96468.36;1699170;85;20127;-61
2021/06/04 11:10:10;;;;;;;;;;;;;;;24.07;26.43;96464.33;1681073;85;20131;-61
2021/06/04 11:12:57;;;;;;;;;;;;;;;23.74;27.97;96463.11;1699146;85;20144;-61
2021/06/04 11:16:01;;;;;;;;;;;;;;;23.68;28.07;96458.02;1699294;85;20179;-61
2021/06/04 11:18:50;;;;;;;;;;;;;;;23.63;27.91;96454.72;1699477;85;20114;-61
2021/06/04 11:21:25;;;;;;;;;;;;;;;23.63;30.96;96459.63;1699175;84;20139;-61
2021/06/04 11:23:58;;;;;;;;;;;;;;;23.60;32.33;96454.41;1699377;85;20130;-61
2021/06/04 11:26:34;;;;;;;;;;;;;;;23.48;28.62;96449.72;1698935;85;20138;-61
2021/06/04 11:29:13;;;;;;;;;;;;;;;23.36;27.56;96451.74;1697827;85;20151;-61
2021/06/04 11:31:55;;;;;;;;;;;;;;;23.36;28.67;96449.05;1699502;85;20134;-61
2021/06/04 11:34:43;;;;;;;;;;;;;;;23.59;29.36;96447.30;1699146;85;20138;-60
2021/06/04 11:37:13;;;;;;;;;;;;;;;24.06;27.69;96446.39;1699114;84;20135;-60
2021/06/04 11:39:46;;;;;;;;;;;;;;;24.30;27.29;96444.09;1697888;85;20135;-60
2021/06/04 11:42:16;;;;;;;;;;;;;;;24.30;27.21;96450.83;1699139;85;20138;-61
2021/06/04 11:44:52;;;;;;;;;;;;;;;24.24;27.33;96448.97;1699042;85;20322;-60
2021/06/04 11:47:22;;;;;;;;;;;;;;;24.24;29.32;96444.92;1698487;85;20126;-61
2021/06/04 11:50:06;;;;;;;;;;;;;;;24.12;28.55;96447.89;1698894;85;20135;-60
2021/06/04 11:52:46;;;;;;;;;;;;;;;24.15;29.38;96439.61;1696997;84;20130;-61
2021/06/04 11:55:30;;;;;;;;;;;;;;;24.64;28.17;96442.06;1681884;85;20127;-61
2021/06/04 11:58:06;;;;;;;;;;;;;;;24.74;26.85;96431.58;1692421;85;20159;-61
2021/06/04 12:00:45;;;;;;;;;;;;;;;24.81;26.69;96430.24;1667357;85;20127;-61
2021/06/04 12:03:17;;;;;;;;;;;;;;;24.69;28.54;96439.09;1688987;85;20123;-61
2021/06/04 12:05:46;;;;;;;;;;;;;;;24.69;28.64;96435.91;1692899;85;20335;-61
2021/06/04 12:08:28;;;;;;;;;;;;;;;24.35;26.23;96434.37;1692650;85;20179;-61
2021/06/04 12:11:04;;;;;;;;;;;;;;;24.31;26.63;96435.51;1692962;85;20146;-61
2021/06/04 12:13:47;;;;;;;;;;;;;;;24.41;29.65;96435.34;1692945;85;20444;-61
2021/06/04 12:16:26;;;;;;;;;;;;;;;24.71;31.19;96423.69;1692969;85;20158;-60
2021/06/04 12:19:00;;;;;;;;;;;;;;;24.64;30.01;96424.53;1691931;85;20150;-61
2021/06/04 12:21:42;;;;;;;;;;;;;;;24.62;30.06;96429.18;1692999;85;20441;-61
2021/06/04 12:24:18;;;;;;;;;;;;;;;24.72;28.50;96415.50;1654717;85;20135;-61
2021/06/04 12:26:57;;;;;;;;;;;;;;;25.00;27.78;96413.30;1692962;85;20436;-61
2021/06/04 12:29:26;;;;;;;;;;;;;;;25.33;27.45;96416.19;1691172;85;20425;-61
2021/06/04 12:32:11;;;;;;;;;;;;;;;25.32;26.91;96413.09;1692942;85;20123;-62
2021/06/04 12:34:41;;;;;;;;;;;;;;;25.12;27.44;96422.92;1692716;85;20135;-62
2021/06/04 12:37:10;;;;;;;;;;;;;;;24.82;26.42;96413.97;1693439;85;20131;-61
2021/06/04 12:40:01;;;;;;;;;;;;;;;24.58;27.29;96417.69;1692688;85;20440;-61
2021/06/04 12:42:32;;;;;;;;;;;;;;;24.56;25.99;96425.00;1685653;85;20135;-63
2021/06/04 12:45:17;;;;;;;;;;;;;;;24.89;28.22;96413.08;1637653;85;20151;-61
2021/06/04 12:47:59;;;;;;;;;;;;;;;25.10;26.75;96414.04;1693116;85;20159;-61
2021/06/04 12:50:32;;;;;;;;;;;;;;;25.11;27.41;96415.80;1693371;85;20139;-61
2021/06/04 12:53:31;;;;;;;;;;;;;;;24.97;26.75;96415.30;1692998;83;20130;-61
2021/06/04 12:56:01;;;;;;;;;;;;;;;25.61;27.29;96411.20;1693769;85;20448;-61
2021/06/04 12:58:54;;;;;;;;;;;;;;;26.85;26.94;96405.99;1694394;85;20135;-62
2021/06/04 13:01:26;;;;;;;;;;;;;;;27.80;23.95;96407.75;1694201;85;20126;-62
2021/06/04 13:04:16;;;;;;;;;;;;;;;28.52;24.36;96399.59;1694518;85;20123;-62
2021/06/04 13:06:52;;;;;;;;;;;;;;;28.68;21.43;96388.42;1694526;85;20119;-61
2021/06/04 13:09:39;;;;;;;;;;;;;;;28.98;22.54;96385.12;1694580;85;20148;-62
2021/06/04 13:12:22;;;;;;;;;;;;;;;29.62;21.64;96389.08;1694016;85;20135;-61
2021/06/04 13:14:50;;;;;;;;;;;;;;;29.43;21.54;96397.36;1694484;85;20134;-61
2021/06/04 13:17:23;;;;;;;;;;;;;;;28.79;20.95;96393.00;1694274;85;20151;-61